createdAt,value
2018-10-16T00:00:31.279Z,14.03
2018-10-16T00:03:00.256Z,14.25
2018-10-16T00:05:29.378Z,17.25
2018-10-16T00:07:58.339Z,13.80
2018-10-16T00:10:33.001Z,15.03
2018-10-16T00:13:01.926Z,13.30
2018-10-16T00:15:31.422Z,18.27
2018-10-16T00:18:00.512Z,18.15
2018-10-16T00:20:29.663Z,13.32
2018-10-16T00:22:58.600Z,15.70
2018-10-16T00:25:27.567Z,14.38
2018-10-16T00:27:56.834Z,15.45
2018-10-16T00:30:25.778Z,16.02
2018-10-16T00:32:54.740Z,15.45
2018-10-16T00:35:23.681Z,14.47
2018-10-16T00:37:55.614Z,12.18
2018-10-16T00:40:24.579Z,13.45
2018-10-16T00:42:53.540Z,13.60
2018-10-16T00:45:22.451Z,17.75
2018-10-16T00:47:51.424Z,15.13
2018-10-16T00:50:20.364Z,16.35
2018-10-16T00:52:49.303Z,16.25
2018-10-16T00:55:18.238Z,10.85
2018-10-16T00:57:47.169Z,11.65
2018-10-16T01:00:16.437Z,14.28
2018-10-16T01:02:45.570Z,14.83
2018-10-16T01:05:14.824Z,12.75
2018-10-16T01:07:44.141Z,16.32
2018-10-16T01:10:13.495Z,14.73
2018-10-16T01:12:42.490Z,17.45
2018-10-16T01:15:12.279Z,17.23
2018-10-16T01:17:47.475Z,15.55
2018-10-16T01:20:16.425Z,12.58
2018-10-16T01:22:45.363Z,14.28
2018-10-16T01:25:14.315Z,13.30
2018-10-16T01:27:43.239Z,17.95
2018-10-16T01:30:12.187Z,15.55
2018-10-16T01:32:41.295Z,13.62
2018-10-16T01:35:11.317Z,17.82
2018-10-16T01:37:40.551Z,15.85
2018-10-16T01:40:10.325Z,18.42
2018-10-16T01:42:39.261Z,16.27
2018-10-16T01:45:08.605Z,16.27
2018-10-16T01:47:37.605Z,13.32
2018-10-16T01:50:06.720Z,16.30
2018-10-16T01:52:35.677Z,13.75
2018-10-16T01:55:04.652Z,14.75
2018-10-16T01:57:33.597Z,15.48
2018-10-16T02:00:02.521Z,13.72
2018-10-16T02:02:31.500Z,14.18
2018-10-16T02:05:00.622Z,14.47
2018-10-16T02:07:29.578Z,15.10
2018-10-16T02:09:58.512Z,19.37
2018-10-16T02:12:27.460Z,13.30
2018-10-16T02:14:56.517Z,14.80
2018-10-16T02:17:25.506Z,15.20
2018-10-16T02:19:54.450Z,17.45
2018-10-16T02:22:23.368Z,15.95
2018-10-16T02:24:52.291Z,18.85
2018-10-16T02:27:21.212Z,14.45
2018-10-16T02:29:50.134Z,16.25
2018-10-16T02:32:19.074Z,14.80
2018-10-16T02:34:48.226Z,18.40
2018-10-16T02:37:17.194Z,21.05
2018-10-16T02:39:46.116Z,21.35
2018-10-16T02:42:15.105Z,14.85
2018-10-16T02:44:44.053Z,17.32
2018-10-16T02:47:13.172Z,17.62
2018-10-16T02:49:42.092Z,15.15
2018-10-16T02:52:11.029Z,15.72
2018-10-16T02:54:40.346Z,15.63
2018-10-16T02:57:09.275Z,31.77
2018-10-16T02:59:38.219Z,16.40
2018-10-16T03:02:07.331Z,17.57
2018-10-16T03:04:36.321Z,20.48
2018-10-16T03:07:05.711Z,14.05
2018-10-16T03:09:34.663Z,16.15
2018-10-16T03:12:03.927Z,15.68
2018-10-16T03:14:32.871Z,15.23
2018-10-16T03:17:02.128Z,20.23
2018-10-16T03:19:31.073Z,15.13
2018-10-16T03:22:00.031Z,17.75
2018-10-16T03:24:29.007Z,16.95
2018-10-16T03:26:58.233Z,19.35
2018-10-16T03:29:27.413Z,14.65
2018-10-16T03:31:56.350Z,17.62
2018-10-16T03:34:25.264Z,14.90
2018-10-16T03:36:54.213Z,18.27
2018-10-16T03:39:23.491Z,16.85
2018-10-16T03:41:52.436Z,24.85
2018-10-16T03:44:21.371Z,19.37
2018-10-16T03:46:50.347Z,24.85
2018-10-16T03:49:19.272Z,21.02
2018-10-16T03:51:48.181Z,16.55
2018-10-16T03:54:17.109Z,21.93
2018-10-16T03:56:46.069Z,17.10
2018-10-16T03:59:15.015Z,19.50
2018-10-16T04:01:43.941Z,22.37
2018-10-16T04:04:12.869Z,24.23
2018-10-16T04:06:41.815Z,18.12
2018-10-16T04:09:10.907Z,18.87
2018-10-16T04:11:39.795Z,17.98
2018-10-16T04:14:08.834Z,20.08
2018-10-16T04:16:37.913Z,17.42
2018-10-16T04:19:06.887Z,15.60
2018-10-16T04:21:41.159Z,17.40
2018-10-16T04:24:10.134Z,17.35
2018-10-16T04:26:39.419Z,19.67
2018-10-16T04:29:09.672Z,17.82
2018-10-16T04:31:38.833Z,16.12
2018-10-16T04:34:08.457Z,23.57
2018-10-16T04:36:37.423Z,20.68
2018-10-16T04:39:09.406Z,20.90
2018-10-16T04:41:38.427Z,17.82
2018-10-16T04:44:07.456Z,21.30
2018-10-16T04:46:36.432Z,20.30
2018-10-16T04:49:05.993Z,18.77
2018-10-16T04:51:35.305Z,17.50
2018-10-16T04:54:04.375Z,21.93
2018-10-16T04:56:33.418Z,20.30
2018-10-16T04:59:02.336Z,20.95
2018-10-16T05:01:31.354Z,53.13
2018-10-16T05:04:00.379Z,22.82
2018-10-16T05:06:29.520Z,26.65
2018-10-16T05:08:58.459Z,20.52
2018-10-16T05:11:27.447Z,26.05
2018-10-16T05:13:56.394Z,21.55
2018-10-16T05:16:25.316Z,20.02
2018-10-16T05:18:54.369Z,18.92
2018-10-16T05:21:23.500Z,19.95
2018-10-16T05:23:52.412Z,19.15
2018-10-16T05:26:21.368Z,20.02
2018-10-16T05:28:50.356Z,20.55
2018-10-16T05:31:19.495Z,27.40
2018-10-16T05:33:48.487Z,23.35
2018-10-16T05:36:17.410Z,18.92
2018-10-16T05:38:46.393Z,18.82
2018-10-16T05:41:15.405Z,23.20
2018-10-16T05:43:44.381Z,21.30
2018-10-16T05:46:13.385Z,19.37
2018-10-16T05:48:42.376Z,18.23
2018-10-16T05:51:11.745Z,23.87
2018-10-16T05:53:40.728Z,20.37
2018-10-16T05:56:09.640Z,19.98
2018-10-16T05:58:38.705Z,17.92
2018-10-16T06:01:07.625Z,25.43
2018-10-16T06:03:36.583Z,20.75
2018-10-16T06:06:05.720Z,20.17
2018-10-16T06:08:34.695Z,21.45
2018-10-16T06:11:03.629Z,31.68
2018-10-16T06:13:32.606Z,21.37
2018-10-16T06:16:01.576Z,22.58
2018-10-16T06:18:30.677Z,23.42
2018-10-16T06:20:59.706Z,21.20
2018-10-16T06:23:28.618Z,18.02
2018-10-16T06:25:57.592Z,26.48
2018-10-16T06:28:27.606Z,23.22
2018-10-16T06:30:56.556Z,25.00
2018-10-16T06:33:28.159Z,42.33
2018-10-16T06:35:57.553Z,24.87
2018-10-16T06:38:26.535Z,19.82
2018-10-16T06:40:55.614Z,20.00
2018-10-16T06:43:24.696Z,19.62
2018-10-16T06:45:53.998Z,21.55
2018-10-16T06:48:23.196Z,27.10
2018-10-16T06:50:52.139Z,23.50
2018-10-16T06:53:21.487Z,27.73
2018-10-16T06:55:50.564Z,21.82
2018-10-16T06:58:19.750Z,25.12
2018-10-16T07:00:48.707Z,22.45
2018-10-16T07:03:17.667Z,24.67
2018-10-16T07:05:46.630Z,19.15
2018-10-16T07:08:15.903Z,20.12
2018-10-16T07:10:44.953Z,23.98
2018-10-16T07:13:13.916Z,21.73
2018-10-16T07:15:42.877Z,18.00
2018-10-16T07:18:11.818Z,21.80
2018-10-16T07:20:41.134Z,24.57
2018-10-16T07:23:10.360Z,26.02
2018-10-16T07:25:39.421Z,27.52
2018-10-16T07:28:08.360Z,21.68
2018-10-16T07:30:37.300Z,22.15
2018-10-16T07:33:06.252Z,21.37
2018-10-16T07:35:35.179Z,26.73
2018-10-16T07:38:04.275Z,21.48
2018-10-16T07:40:33.375Z,21.60
2018-10-16T07:43:02.369Z,41.40
2018-10-16T07:45:31.333Z,19.57
2018-10-16T07:48:00.301Z,21.50
2018-10-16T07:50:29.290Z,18.10
2018-10-16T07:52:58.303Z,20.80
2018-10-16T07:55:27.244Z,26.02
2018-10-16T07:57:56.224Z,20.23
2018-10-16T08:00:25.196Z,20.50
2018-10-16T08:02:54.219Z,18.55
2018-10-16T08:05:23.179Z,17.60
2018-10-16T08:07:52.149Z,18.70
2018-10-16T08:10:21.126Z,21.30
2018-10-16T08:12:50.065Z,21.30
2018-10-16T08:15:19.037Z,16.87
2018-10-16T08:17:47.964Z,25.50
2018-10-16T08:20:16.938Z,24.80
2018-10-16T08:22:45.894Z,22.50
2018-10-16T08:25:14.848Z,22.02
2018-10-16T08:27:43.813Z,19.23
2018-10-16T08:30:12.739Z,20.30
2018-10-16T08:32:41.657Z,20.45
2018-10-16T08:35:10.638Z,21.77
2018-10-16T08:39:47.778Z,21.33
2018-10-16T08:43:26.166Z,25.00
2018-10-16T08:46:06.425Z,17.70
2018-10-16T08:48:46.791Z,21.75
2018-10-16T08:51:28.882Z,23.45
2018-10-16T08:53:57.880Z,25.43
2018-10-16T08:56:26.907Z,20.05
2018-10-16T08:58:55.846Z,20.35
2018-10-16T09:01:24.810Z,21.40
2018-10-16T09:03:54.247Z,20.52
2018-10-16T09:06:23.192Z,19.07
2018-10-16T09:08:52.127Z,22.60
2018-10-16T09:11:21.064Z,22.70
2018-10-16T09:13:50.114Z,20.08
2018-10-16T09:16:19.359Z,19.67
2018-10-16T09:18:48.352Z,20.90
2018-10-16T09:21:17.312Z,19.32
2018-10-16T09:23:46.350Z,22.48
2018-10-16T09:26:15.316Z,23.57
2018-10-16T09:28:44.271Z,19.67
2018-10-16T09:31:13.280Z,22.30
2018-10-16T09:33:42.361Z,27.30
2018-10-16T09:36:11.405Z,25.30
2018-10-16T09:38:40.389Z,19.40
2018-10-16T09:41:09.691Z,23.12
2018-10-16T09:43:38.617Z,21.70
2018-10-16T09:46:07.583Z,20.92
2018-10-16T09:48:36.585Z,19.77
2018-10-16T09:51:06.301Z,20.55
2018-10-16T09:53:35.363Z,27.77
2018-10-16T09:56:04.576Z,27.42
2018-10-16T09:58:33.535Z,27.45
2018-10-16T10:01:07.993Z,25.50
2018-10-16T10:03:36.926Z,21.00
2018-10-16T10:06:06.295Z,25.12
2018-10-16T10:08:35.276Z,21.87
2018-10-16T10:11:04.649Z,23.12
2018-10-16T10:13:33.781Z,29.12
2018-10-16T10:16:02.709Z,20.97
2018-10-16T10:18:31.670Z,23.57
2018-10-16T10:21:00.754Z,22.40
2018-10-16T10:23:29.788Z,29.27
2018-10-16T10:25:58.872Z,25.88
2018-10-16T10:28:27.846Z,26.07
2018-10-16T10:30:56.908Z,21.23
2018-10-16T10:33:25.860Z,23.35
2018-10-16T10:35:54.814Z,22.65
2018-10-16T10:38:23.809Z,21.57
2018-10-16T10:40:52.787Z,23.30
2018-10-16T10:43:21.776Z,24.47
2018-10-16T10:45:50.754Z,21.57
2018-10-16T10:48:19.753Z,23.42
2018-10-16T10:50:48.936Z,25.15
2018-10-16T10:53:17.973Z,24.12
2018-10-16T10:55:47.324Z,22.42
2018-10-16T10:58:16.347Z,25.48
2018-10-16T11:00:45.371Z,20.32
2018-10-16T11:03:14.398Z,20.88
2018-10-16T11:05:43.494Z,21.02
2018-10-16T11:08:12.472Z,26.17
2018-10-16T11:10:41.440Z,20.77
2018-10-16T11:13:10.466Z,23.92
2018-10-16T11:15:39.428Z,22.05
2018-10-16T11:18:08.408Z,20.97
2018-10-16T11:20:37.410Z,19.87
2018-10-16T11:23:06.365Z,25.10
2018-10-16T11:25:35.312Z,22.98
2018-10-16T11:28:04.719Z,20.80
2018-10-16T11:30:33.677Z,23.98
2018-10-16T11:33:02.678Z,23.73
2018-10-16T11:35:31.850Z,21.80
2018-10-16T11:38:01.144Z,30.02
2018-10-16T11:40:30.123Z,22.77
2018-10-16T11:42:59.058Z,25.68
2018-10-16T11:45:28.013Z,26.30
2018-10-16T11:47:56.954Z,20.37
2018-10-16T11:50:25.926Z,27.13
2018-10-16T11:52:54.883Z,24.10
2018-10-16T11:55:23.858Z,24.52
2018-10-16T11:57:52.773Z,25.30
2018-10-16T12:00:24.273Z,22.45
2018-10-16T12:02:53.679Z,21.87
2018-10-16T12:05:23.141Z,22.48
2018-10-16T12:07:52.242Z,23.00
2018-10-16T12:10:21.418Z,31.30
2018-10-16T12:12:50.471Z,27.77
2018-10-16T12:15:19.587Z,24.47
2018-10-16T12:17:53.906Z,22.13
2018-10-16T12:20:26.943Z,24.90
2018-10-16T12:22:55.939Z,29.23
2018-10-16T12:25:24.898Z,30.72
2018-10-16T12:27:53.873Z,28.75
2018-10-16T12:30:23.260Z,26.93
2018-10-16T12:32:52.208Z,27.90
2018-10-16T12:35:21.149Z,28.75
2018-10-16T12:37:50.152Z,27.55
2018-10-16T12:40:19.244Z,24.87
2018-10-16T12:42:48.403Z,23.52
2018-10-16T12:45:17.500Z,29.60
2018-10-16T12:47:46.514Z,23.15
2018-10-16T12:50:15.528Z,22.58
2018-10-16T12:52:44.650Z,27.48
2018-10-16T12:55:13.676Z,24.40
2018-10-16T12:57:42.700Z,24.50
2018-10-16T13:00:12.067Z,27.17
2018-10-16T13:02:41.219Z,30.15
2018-10-16T13:05:10.429Z,24.70
2018-10-16T13:07:39.955Z,28.60
2018-10-16T13:10:12.236Z,23.90
2018-10-16T13:12:42.100Z,26.48
2018-10-16T13:15:12.684Z,31.02
2018-10-16T13:17:41.808Z,27.67
2018-10-16T13:20:12.331Z,24.90
2018-10-16T13:22:42.063Z,25.95
2018-10-16T13:25:12.456Z,30.05
2018-10-16T13:27:41.464Z,31.77
2018-10-16T13:30:12.134Z,31.02
2018-10-16T13:32:41.201Z,30.17
2018-10-16T13:35:12.819Z,30.45
2018-10-16T13:37:42.265Z,26.52
2018-10-16T13:40:11.673Z,32.53
2018-10-16T13:42:40.998Z,47.13
2018-10-16T13:45:11.015Z,32.03
2018-10-16T13:47:39.946Z,31.15
2018-10-16T13:50:11.606Z,31.02
2018-10-16T13:52:40.848Z,29.27
2018-10-16T13:55:10.608Z,31.90
2018-10-16T13:57:40.259Z,31.60
2018-10-16T14:00:15.156Z,34.38
2018-10-16T14:02:45.653Z,43.80
2018-10-16T14:05:14.667Z,36.25
2018-10-16T14:07:43.757Z,37.28
2018-10-16T14:10:13.807Z,33.40
2018-10-16T14:12:44.223Z,32.50
2018-10-16T14:15:14.147Z,29.32
2018-10-16T14:17:43.207Z,35.63
2018-10-16T14:20:12.341Z,35.00
2018-10-16T14:22:42.497Z,32.00
2018-10-16T14:25:13.013Z,40.10
2018-10-16T14:27:42.419Z,36.48
2018-10-16T14:30:13.515Z,34.55
2018-10-16T14:32:43.233Z,35.13
2018-10-16T14:35:12.926Z,41.28
2018-10-16T14:37:42.158Z,33.65
2018-10-16T14:40:13.022Z,31.80
2018-10-16T14:42:42.296Z,49.05
2018-10-16T14:45:13.779Z,55.30
2018-10-16T14:47:43.196Z,39.92
2018-10-16T14:50:14.372Z,34.48
2018-10-16T14:52:43.559Z,37.83
2018-10-16T14:55:12.572Z,39.30
2018-10-16T14:57:41.590Z,28.62
2018-10-16T15:00:11.762Z,34.30
2018-10-16T15:02:40.864Z,37.38
2018-10-16T15:05:10.788Z,34.63
2018-10-16T15:07:40.114Z,37.78
2018-10-16T15:10:10.001Z,30.25
2018-10-16T15:12:39.134Z,31.65
2018-10-16T15:15:08.719Z,33.50
2018-10-16T15:17:37.636Z,37.10
2018-10-16T15:20:08.452Z,36.35
2018-10-16T15:22:37.620Z,45.35
2018-10-16T15:25:07.662Z,38.05
2018-10-16T15:27:36.702Z,35.95
2018-10-16T15:30:08.536Z,31.35
2018-10-16T15:32:40.648Z,30.23
2018-10-16T15:35:12.180Z,35.65
2018-10-16T15:37:42.042Z,30.55
2018-10-16T15:40:12.607Z,29.65
2018-10-16T15:42:42.727Z,34.65
2018-10-16T15:45:12.515Z,36.65
2018-10-16T15:47:41.970Z,35.23
2018-10-16T15:50:11.666Z,34.60
2018-10-16T15:52:41.171Z,37.08
2018-10-16T15:55:11.305Z,35.38
2018-10-16T15:57:40.344Z,39.42
2018-10-16T16:00:12.047Z,31.80
2018-10-16T16:02:41.154Z,31.50
2018-10-16T16:05:10.173Z,37.30
2018-10-16T16:07:39.119Z,30.88
2018-10-16T16:10:10.231Z,33.02
2018-10-16T16:12:39.430Z,31.73
2018-10-16T16:15:09.560Z,33.90
2018-10-16T16:17:38.585Z,36.75
2018-10-16T16:20:09.086Z,37.50
2018-10-16T16:22:38.207Z,35.55
2018-10-16T16:25:09.203Z,34.13
2018-10-16T16:27:38.422Z,33.48
2018-10-16T16:30:09.432Z,39.80
2018-10-16T16:32:38.843Z,35.48
2018-10-16T16:35:07.835Z,32.40
2018-10-16T16:37:37.008Z,36.75
2018-10-16T16:40:09.718Z,41.55
2018-10-16T16:42:38.754Z,36.25
2018-10-16T16:45:08.289Z,36.55
2018-10-16T16:47:37.339Z,32.98
2018-10-16T16:50:07.667Z,40.12
2018-10-16T16:52:36.865Z,30.77
2018-10-16T16:55:07.465Z,41.10
2018-10-16T16:57:36.424Z,33.88
2018-10-16T17:00:05.605Z,38.60
2018-10-16T17:02:34.656Z,43.05
2018-10-16T17:05:03.696Z,37.03
2018-10-16T17:07:32.652Z,35.33
2018-10-16T17:10:01.809Z,34.80
2018-10-16T17:12:30.946Z,36.35
2018-10-16T17:15:00.070Z,37.08
2018-10-16T17:17:29.049Z,41.33
2018-10-16T17:19:58.051Z,46.50
2018-10-16T17:22:27.155Z,37.95
2018-10-16T17:24:56.255Z,47.85
2018-10-16T17:27:25.311Z,40.08
2018-10-16T17:29:54.249Z,43.58
2018-10-16T17:32:23.543Z,42.75
2018-10-16T17:34:52.491Z,40.48
2018-10-16T17:37:21.397Z,39.42
2018-10-16T17:39:50.327Z,49.15
2018-10-16T17:42:19.258Z,39.70
2018-10-16T17:44:48.229Z,36.90
2018-10-16T17:47:17.157Z,40.40
2018-10-16T17:49:46.134Z,41.37
2018-10-16T17:52:15.128Z,41.08
2018-10-16T17:54:44.025Z,36.77
2018-10-16T17:57:12.999Z,39.90
2018-10-16T17:59:42.103Z,38.60
2018-10-16T18:02:11.035Z,43.05
2018-10-16T18:04:40.069Z,47.48
2018-10-16T18:07:09.146Z,44.23
2018-10-16T18:09:38.085Z,39.95
2018-10-16T18:12:07.249Z,42.05
2018-10-16T18:14:36.214Z,44.27
2018-10-16T18:17:05.506Z,47.48
2018-10-16T18:19:34.485Z,45.58
2018-10-16T18:22:03.453Z,47.30
2018-10-16T18:24:32.435Z,47.70
2018-10-16T18:27:01.431Z,48.28
2018-10-16T18:29:30.623Z,43.65
2018-10-16T18:31:59.605Z,38.67
2018-10-16T18:34:28.545Z,51.30
2018-10-16T18:36:57.524Z,43.48
2018-10-16T18:39:26.606Z,42.90
2018-10-16T18:41:55.680Z,45.23
2018-10-16T18:44:24.711Z,37.40
2018-10-16T18:46:53.797Z,40.23
2018-10-16T18:49:22.762Z,45.23
2018-10-16T18:51:51.722Z,42.25
2018-10-16T18:54:20.741Z,43.38
2018-10-16T18:56:49.850Z,40.88
2018-10-16T18:59:18.828Z,43.02
2018-10-16T19:01:47.780Z,42.10
2018-10-16T19:04:16.768Z,45.15
2018-10-16T19:06:45.720Z,45.90
2018-10-16T19:09:14.820Z,40.03
2018-10-16T19:11:44.054Z,42.75
2018-10-16T19:14:13.037Z,43.28
2018-10-16T19:16:42.024Z,51.77
2018-10-16T19:19:10.996Z,52.67
2018-10-16T19:21:39.950Z,51.60
2018-10-16T19:24:08.926Z,48.73
2018-10-16T19:26:37.938Z,49.48
2018-10-16T19:29:06.920Z,46.50
2018-10-16T19:31:36.234Z,44.75
2018-10-16T19:34:05.562Z,66.82
2018-10-16T19:36:34.507Z,47.08
2018-10-16T19:39:03.616Z,54.63
2018-10-16T19:41:32.747Z,45.95
2018-10-16T19:44:01.707Z,51.02
2018-10-16T19:46:30.664Z,53.48
2018-10-16T19:48:59.591Z,49.95
2018-10-16T19:51:28.749Z,66.82
2018-10-16T19:53:57.696Z,47.95
2018-10-16T19:56:26.664Z,71.33
2018-10-16T19:58:55.861Z,54.90
2018-10-16T20:01:24.791Z,63.55
2018-10-16T20:03:53.765Z,63.90
2018-10-16T20:06:22.729Z,62.93
2018-10-16T20:08:51.932Z,67.90
2018-10-16T20:11:21.082Z,55.25
2018-10-16T20:13:50.246Z,49.93
2018-10-16T20:16:19.290Z,49.98
2018-10-16T20:18:48.234Z,56.48
2018-10-16T20:21:17.512Z,54.35
2018-10-16T20:23:46.495Z,51.48
2018-10-16T20:26:15.522Z,45.90
2018-10-16T20:28:44.502Z,46.95
2018-10-16T20:31:13.499Z,47.75
2018-10-16T20:33:42.642Z,40.52
2018-10-16T20:36:11.663Z,47.73
2018-10-16T20:38:40.625Z,48.25
2018-10-16T20:41:09.613Z,47.08
2018-10-16T20:43:38.576Z,45.67
2018-10-16T20:46:07.630Z,43.87
2018-10-16T20:48:36.577Z,45.92
2018-10-16T20:51:05.977Z,48.10
2018-10-16T20:53:34.927Z,47.05
2018-10-16T20:56:03.913Z,51.33
2018-10-16T20:58:33.226Z,47.73
2018-10-16T21:01:02.359Z,44.48
2018-10-16T21:03:31.533Z,49.03
2018-10-16T21:06:01.005Z,50.70
2018-10-16T21:08:30.049Z,40.05
2018-10-16T21:10:59.043Z,49.90
2018-10-16T21:13:27.985Z,45.17
2018-10-16T21:15:57.529Z,47.65
2018-10-16T21:18:26.468Z,49.38
2018-10-16T21:20:55.396Z,52.43
2018-10-16T21:23:24.319Z,41.70
2018-10-16T21:25:53.252Z,50.38
2018-10-16T21:28:22.576Z,46.95
2018-10-16T21:30:51.569Z,50.50
2018-10-16T21:33:20.711Z,52.23
2018-10-16T21:35:49.750Z,49.55
2018-10-16T21:38:18.671Z,44.58
2018-10-16T21:40:47.614Z,46.08
2018-10-16T21:43:16.537Z,50.48
2018-10-16T21:45:45.511Z,46.92
2018-10-16T21:48:14.491Z,46.95
2018-10-16T21:50:43.456Z,43.95
2018-10-16T21:53:12.463Z,46.50
2018-10-16T21:55:41.551Z,51.92
2018-10-16T21:58:10.530Z,49.80
2018-10-16T22:00:44.894Z,52.73
2018-10-16T22:03:13.860Z,49.10
2018-10-16T22:05:42.844Z,46.13
2018-10-16T22:08:11.884Z,52.83
2018-10-16T22:10:40.935Z,49.40
2018-10-16T22:13:10.915Z,49.27
2018-10-16T22:15:40.030Z,44.63
2018-10-16T22:18:09.000Z,46.73
2018-10-16T22:20:37.940Z,50.67
2018-10-16T22:23:07.011Z,49.10
2018-10-16T22:25:36.131Z,65.03
2018-10-16T22:28:05.511Z,55.10
2018-10-16T22:30:34.460Z,44.67
2018-10-16T22:33:03.400Z,52.67
2018-10-16T22:35:32.340Z,51.15
2018-10-16T22:38:01.313Z,50.70
2018-10-16T22:40:30.301Z,42.33
2018-10-16T22:42:59.244Z,49.48
2018-10-16T22:45:28.376Z,47.53
2018-10-16T22:47:57.345Z,49.58
2018-10-16T22:50:26.292Z,46.55
2018-10-16T22:52:55.299Z,49.55
2018-10-16T22:55:24.401Z,49.50
2018-10-16T22:57:53.336Z,48.83
2018-10-16T23:00:22.646Z,46.63
2018-10-16T23:02:51.584Z,52.35
2018-10-16T23:05:20.542Z,50.63
2018-10-16T23:07:49.450Z,50.83
2018-10-16T23:10:18.383Z,48.95
2018-10-16T23:12:51.558Z,54.33
2018-10-16T23:15:20.707Z,48.40
2018-10-16T23:17:49.633Z,48.95
2018-10-16T23:20:18.660Z,47.13
2018-10-16T23:22:47.776Z,48.90
2018-10-16T23:25:16.848Z,45.65
2018-10-16T23:27:46.324Z,43.92
2018-10-16T23:30:15.261Z,46.53
2018-10-16T23:32:44.149Z,48.45
2018-10-16T23:35:13.505Z,49.18
2018-10-16T23:37:42.607Z,51.70
2018-10-16T23:40:11.903Z,47.30
2018-10-16T23:42:40.897Z,49.75
2018-10-16T23:45:09.901Z,49.33
2018-10-16T23:47:39.203Z,49.25
2018-10-16T23:50:08.163Z,45.75
2018-10-16T23:52:37.122Z,47.58
2018-10-16T23:55:07.549Z,46.15
2018-10-16T23:57:36.612Z,54.95
